createdAt,value
2024-02-26T00:00:18.604Z,10.55
2024-02-26T00:02:46.158Z,8.77
2024-02-26T00:05:13.744Z,8.88
2024-02-26T00:07:41.380Z,9.68
2024-02-26T00:10:09.098Z,9.40
2024-02-26T00:12:36.700Z,10.00
2024-02-26T00:15:04.313Z,10.27
2024-02-26T00:17:32.158Z,9.55
2024-02-26T00:19:59.794Z,9.85
2024-02-26T00:22:27.458Z,8.10
2024-02-26T00:24:54.951Z,9.70
2024-02-26T00:27:22.222Z,10.20
2024-02-26T00:29:49.854Z,8.90
2024-02-26T00:32:17.394Z,8.57
2024-02-26T00:34:45.359Z,13.05
2024-02-26T00:37:12.914Z,9.82
2024-02-26T00:39:40.658Z,11.60
2024-02-26T00:42:08.592Z,9.55
2024-02-26T00:44:36.118Z,9.93
2024-02-26T00:47:03.749Z,9.20
2024-02-26T00:49:31.223Z,10.75
2024-02-26T00:51:58.744Z,9.20
2024-02-26T00:54:26.294Z,9.90
2024-02-26T00:56:53.808Z,10.05
2024-02-26T00:59:21.356Z,10.30
2024-02-26T01:01:48.919Z,9.98
2024-02-26T01:04:16.658Z,9.25
2024-02-26T01:06:44.223Z,9.90
2024-02-26T01:09:11.844Z,11.10
2024-02-26T01:11:39.306Z,10.57
2024-02-26T01:14:07.396Z,11.60
2024-02-26T01:16:34.956Z,10.00
2024-02-26T01:19:02.552Z,12.82
2024-02-26T01:21:31.258Z,10.50
2024-02-26T01:23:58.742Z,9.93
2024-02-26T01:26:26.002Z,9.88
2024-02-26T01:28:53.551Z,9.77
2024-02-26T01:31:21.319Z,11.70
2024-02-26T01:33:49.038Z,10.50
2024-02-26T01:36:16.676Z,9.27
2024-02-26T01:38:44.396Z,9.48
2024-02-26T01:41:12.221Z,8.98
2024-02-26T01:43:39.690Z,10.02
2024-02-26T01:46:07.301Z,10.85
2024-02-26T01:48:34.916Z,11.30
2024-02-26T01:51:02.437Z,10.35
2024-02-26T01:53:30.035Z,9.82
2024-02-26T01:55:57.504Z,10.77
2024-02-26T01:58:25.047Z,11.25
2024-02-26T02:00:52.468Z,10.23
2024-02-26T02:03:20.107Z,11.35
2024-02-26T02:05:47.744Z,9.52
2024-02-26T02:08:18.019Z,11.13
2024-02-26T02:10:45.591Z,11.82
2024-02-26T02:13:13.064Z,14.68
2024-02-26T02:15:40.657Z,11.48
2024-02-26T02:18:08.561Z,12.05
2024-02-26T02:20:36.382Z,12.20
2024-02-26T02:23:03.818Z,12.43
2024-02-26T02:25:31.386Z,14.32
2024-02-26T02:27:58.723Z,14.35
2024-02-26T02:30:27.934Z,12.18
2024-02-26T02:32:56.567Z,12.20
2024-02-26T02:35:24.453Z,12.38
2024-02-26T02:37:54.749Z,13.02
2024-02-26T02:40:22.263Z,13.27
2024-02-26T02:42:49.674Z,12.52
2024-02-26T02:45:17.101Z,12.02
2024-02-26T02:47:44.786Z,11.55
2024-02-26T02:50:12.313Z,12.65
2024-02-26T02:52:39.752Z,11.52
2024-02-26T02:55:07.456Z,12.07
2024-02-26T02:57:34.960Z,12.95
2024-02-26T03:00:05.023Z,12.45
2024-02-26T03:02:32.728Z,11.65
2024-02-26T03:05:00.354Z,11.27
2024-02-26T03:07:27.886Z,12.23
2024-02-26T03:09:55.096Z,11.52
2024-02-26T03:12:22.603Z,13.02
2024-02-26T03:14:50.148Z,13.23
2024-02-26T03:17:17.666Z,11.07
2024-02-26T03:19:47.991Z,12.80
2024-02-26T03:22:15.475Z,12.27
2024-02-26T03:24:42.879Z,11.07
2024-02-26T03:27:10.891Z,12.07
2024-02-26T03:29:38.917Z,12.20
2024-02-26T03:32:06.727Z,12.20
2024-02-26T03:34:37.634Z,12.35
2024-02-26T03:37:05.032Z,12.48
2024-02-26T03:39:32.470Z,12.25
2024-02-26T03:41:59.997Z,12.57
2024-02-26T03:44:27.200Z,13.20
2024-02-26T03:46:54.384Z,13.00
2024-02-26T03:49:21.911Z,13.45
2024-02-26T03:51:49.762Z,13.23
2024-02-26T03:54:17.261Z,14.13
2024-02-26T03:56:44.737Z,13.52
2024-02-26T03:59:12.119Z,14.30
2024-02-26T04:01:39.700Z,18.85
2024-02-26T04:04:07.257Z,18.38
2024-02-26T04:06:34.857Z,17.73
2024-02-26T04:09:04.976Z,21.45
2024-02-26T04:11:32.821Z,16.67
2024-02-26T04:14:00.448Z,21.88
2024-02-26T04:16:27.848Z,17.48
2024-02-26T04:18:55.973Z,20.45
2024-02-26T04:21:23.323Z,26.08
2024-02-26T04:23:50.625Z,21.80
2024-02-26T04:26:18.140Z,20.52
2024-02-26T04:28:45.643Z,26.08
2024-02-26T04:31:13.010Z,24.02
2024-02-26T04:33:40.617Z,19.50
2024-02-26T04:36:13.163Z,20.60
2024-02-26T04:38:40.817Z,21.20
2024-02-26T04:41:08.259Z,18.48
2024-02-26T04:43:42.448Z,20.65
2024-02-26T04:46:10.437Z,18.17
2024-02-26T04:48:38.057Z,22.50
2024-02-26T04:51:05.696Z,20.33
2024-02-26T04:53:33.191Z,18.67
2024-02-26T04:56:00.634Z,19.60
2024-02-26T04:58:28.152Z,19.02
2024-02-26T05:00:55.864Z,18.77
2024-02-26T05:03:23.316Z,17.50
2024-02-26T05:05:51.050Z,17.92
2024-02-26T05:08:18.636Z,19.83
2024-02-26T05:10:46.533Z,21.85
2024-02-26T05:13:16.451Z,18.17
2024-02-26T05:15:43.740Z,17.35
2024-02-26T05:18:11.361Z,16.27
2024-02-26T05:20:39.202Z,20.77
2024-02-26T05:23:06.774Z,18.92
2024-02-26T05:25:34.385Z,18.98
2024-02-26T05:28:02.085Z,17.58
2024-02-26T05:30:30.335Z,20.40
2024-02-26T05:32:58.117Z,20.15
2024-02-26T05:35:27.053Z,18.10
2024-02-26T05:37:55.211Z,18.20
2024-02-26T05:40:22.774Z,13.00
2024-02-26T05:42:50.425Z,22.63
2024-02-26T05:45:18.037Z,20.60
2024-02-26T05:47:45.726Z,20.60
2024-02-26T05:50:13.837Z,22.13
2024-02-26T05:52:41.400Z,21.98
2024-02-26T05:55:09.192Z,18.20
2024-02-26T05:57:37.127Z,19.90
2024-02-26T06:00:05.313Z,19.45
2024-02-26T06:02:32.954Z,12.35
2024-02-26T06:05:00.563Z,15.45
2024-02-26T06:07:28.000Z,17.83
2024-02-26T06:09:55.491Z,15.95
2024-02-26T06:12:23.094Z,15.98
2024-02-26T06:14:50.773Z,15.90
2024-02-26T06:17:18.222Z,16.58
2024-02-26T06:19:45.761Z,17.08
2024-02-26T06:22:13.312Z,15.02
2024-02-26T06:24:40.744Z,16.02
2024-02-26T06:27:08.346Z,14.15
2024-02-26T06:29:35.889Z,14.75
2024-02-26T06:32:03.454Z,16.38
2024-02-26T06:34:30.976Z,17.42
2024-02-26T06:36:58.487Z,16.73
2024-02-26T06:39:25.927Z,15.52
2024-02-26T06:42:01.096Z,20.55
2024-02-26T06:44:33.102Z,21.50
2024-02-26T06:47:01.338Z,19.38
2024-02-26T06:49:29.226Z,15.32
2024-02-26T06:51:56.992Z,12.98
2024-02-26T06:54:24.510Z,15.25
2024-02-26T06:56:52.034Z,16.17
2024-02-26T06:59:21.176Z,16.05
2024-02-26T07:01:48.463Z,14.60
2024-02-26T07:04:16.221Z,16.55
2024-02-26T07:06:45.140Z,13.90
2024-02-26T07:09:13.717Z,15.68
2024-02-26T07:11:44.941Z,17.00
2024-02-26T07:14:13.401Z,13.50
2024-02-26T07:16:40.637Z,9.60
2024-02-26T07:19:08.437Z,14.30
2024-02-26T07:21:36.125Z,9.60
2024-02-26T07:24:03.731Z,13.10
2024-02-26T07:26:32.053Z,16.05
2024-02-26T07:28:59.924Z,13.65
2024-02-26T07:31:27.218Z,13.27
2024-02-26T07:33:54.837Z,14.27
2024-02-26T07:36:22.659Z,14.50
2024-02-26T07:38:50.596Z,15.35
2024-02-26T07:41:18.308Z,11.03
2024-02-26T07:43:45.555Z,17.48
2024-02-26T07:46:13.813Z,15.32
2024-02-26T07:48:42.572Z,12.10
2024-02-26T07:51:10.258Z,20.83
2024-02-26T07:53:37.770Z,25.83
2024-02-26T07:56:05.272Z,18.63
2024-02-26T07:58:35.704Z,28.95
2024-02-26T08:01:03.406Z,20.15
2024-02-26T08:03:30.848Z,16.27
2024-02-26T08:05:58.431Z,13.55
2024-02-26T08:08:25.984Z,12.40
2024-02-26T08:10:53.508Z,13.73
2024-02-26T08:13:20.995Z,12.25
2024-02-26T08:15:48.476Z,11.52
2024-02-26T08:18:17.384Z,12.90
2024-02-26T08:20:45.172Z,11.60
2024-02-26T08:23:12.889Z,15.30
2024-02-26T08:25:40.326Z,15.30
2024-02-26T08:28:07.924Z,18.08
2024-02-26T08:30:35.649Z,14.73
2024-02-26T08:33:03.417Z,16.05
2024-02-26T08:35:31.090Z,14.52
2024-02-26T08:37:58.509Z,21.70
2024-02-26T08:40:25.998Z,15.10
2024-02-26T08:42:53.135Z,16.15
2024-02-26T08:45:20.628Z,16.33
2024-02-26T08:47:48.232Z,16.17
2024-02-26T08:50:15.936Z,15.07
2024-02-26T08:52:43.482Z,15.00
2024-02-26T08:55:11.060Z,17.42
2024-02-26T08:57:39.777Z,17.70
2024-02-26T09:00:07.432Z,16.23
2024-02-26T09:02:35.061Z,16.67
2024-02-26T09:05:02.656Z,14.98
2024-02-26T09:07:30.285Z,16.15
2024-02-26T09:09:57.972Z,15.13
2024-02-26T09:12:25.650Z,13.80
2024-02-26T09:14:53.360Z,16.15
2024-02-26T09:17:20.877Z,14.18
2024-02-26T09:19:48.367Z,13.15
2024-02-26T09:22:18.536Z,14.25
2024-02-26T09:24:46.626Z,16.52
2024-02-26T09:27:13.855Z,15.52
2024-02-26T09:29:41.332Z,14.88
2024-02-26T09:32:08.892Z,12.18
2024-02-26T09:34:36.230Z,13.13
2024-02-26T09:37:12.074Z,13.57
2024-02-26T09:39:43.451Z,11.93
2024-02-26T09:42:11.317Z,11.55
2024-02-26T09:44:40.954Z,12.13
2024-02-26T09:47:10.428Z,11.70
2024-02-26T09:49:38.230Z,11.00
2024-02-26T09:52:06.188Z,10.35
2024-02-26T09:54:34.256Z,8.43
2024-02-26T09:57:04.829Z,9.38
2024-02-26T09:59:41.364Z,11.20
2024-02-26T10:02:15.510Z,11.57
2024-02-26T10:04:46.913Z,12.30
2024-02-26T10:07:17.313Z,10.68
2024-02-26T10:09:44.921Z,7.15
2024-02-26T10:12:16.913Z,8.95
2024-02-26T10:14:44.683Z,10.25
2024-02-26T10:17:12.569Z,9.25
2024-02-26T10:19:40.397Z,11.50
2024-02-26T10:22:08.097Z,12.13
2024-02-26T10:24:36.195Z,13.65
2024-02-26T10:27:04.257Z,9.30
2024-02-26T10:29:32.243Z,12.77
2024-02-26T10:31:59.809Z,11.90
2024-02-26T10:34:27.795Z,9.00
2024-02-26T10:36:55.710Z,8.27
2024-02-26T10:39:23.501Z,11.55
2024-02-26T10:41:51.257Z,9.10
2024-02-26T10:44:19.794Z,10.75
2024-02-26T10:46:48.216Z,8.73
2024-02-26T10:49:21.960Z,10.55
2024-02-26T10:51:53.967Z,9.50
2024-02-26T10:54:22.427Z,10.00
2024-02-26T10:56:51.066Z,6.75
2024-02-26T10:59:22.232Z,11.63
2024-02-26T11:01:50.897Z,8.98
2024-02-26T11:04:19.628Z,10.65
2024-02-26T11:06:47.690Z,11.93
2024-02-26T11:09:16.381Z,9.37
2024-02-26T11:11:44.173Z,12.00
2024-02-26T11:14:12.321Z,10.88
2024-02-26T11:16:40.891Z,8.43
2024-02-26T11:19:10.902Z,7.97
2024-02-26T11:21:42.625Z,8.80
2024-02-26T11:24:12.131Z,9.52
2024-02-26T11:26:49.440Z,9.80
2024-02-26T11:29:18.713Z,10.43
2024-02-26T11:31:46.408Z,9.02
2024-02-26T11:34:14.600Z,8.57
2024-02-26T11:36:43.573Z,9.98
2024-02-26T11:39:13.709Z,10.48
2024-02-26T11:41:41.478Z,10.43
2024-02-26T11:44:09.105Z,10.65
2024-02-26T11:46:44.335Z,9.85
2024-02-26T11:49:27.445Z,9.90
2024-02-26T11:52:01.844Z,11.23
2024-02-26T11:54:39.577Z,12.07
2024-02-26T11:57:20.912Z,12.50
2024-02-26T11:59:48.670Z,10.75
2024-02-26T12:02:34.521Z,11.10
2024-02-26T12:05:02.891Z,10.45
2024-02-26T12:07:31.019Z,10.90
2024-02-26T12:10:14.803Z,12.23
2024-02-26T12:12:42.796Z,10.68
2024-02-26T12:15:12.147Z,10.20
2024-02-26T12:17:39.770Z,11.82
2024-02-26T12:20:11.262Z,11.10
2024-02-26T12:22:40.837Z,9.63
2024-02-26T12:25:10.771Z,9.98
2024-02-26T12:27:38.393Z,9.77
2024-02-26T12:30:07.626Z,9.80
2024-02-26T12:32:36.104Z,9.40
2024-02-26T12:35:04.008Z,7.65
2024-02-26T12:37:31.599Z,10.35
2024-02-26T12:39:59.175Z,10.80
2024-02-26T12:42:27.049Z,9.38
2024-02-26T12:44:55.140Z,9.50
2024-02-26T12:47:22.334Z,10.63
2024-02-26T12:49:50.314Z,9.98
2024-02-26T12:52:17.774Z,9.75
2024-02-26T12:54:45.651Z,11.98
2024-02-26T12:57:13.375Z,9.55
2024-02-26T12:59:41.212Z,10.90
2024-02-26T13:02:08.917Z,9.73
2024-02-26T13:04:36.758Z,11.13
2024-02-26T13:07:06.121Z,9.95
2024-02-26T13:09:36.100Z,10.75
2024-02-26T13:12:07.534Z,9.85
2024-02-26T13:14:35.697Z,10.93
2024-02-26T13:17:04.040Z,11.57
2024-02-26T13:19:31.785Z,11.90
2024-02-26T13:22:07.579Z,10.93
2024-02-26T13:24:35.892Z,12.02
2024-02-26T13:27:06.328Z,13.88
2024-02-26T13:29:34.393Z,12.80
2024-02-26T13:32:01.659Z,11.00
2024-02-26T13:34:30.414Z,10.23
2024-02-26T13:36:58.298Z,10.57
2024-02-26T13:39:26.444Z,10.30
2024-02-26T13:41:54.670Z,10.93
2024-02-26T13:44:22.292Z,9.47
2024-02-26T13:46:50.668Z,11.40
2024-02-26T13:49:18.469Z,10.52
2024-02-26T13:51:46.148Z,12.27
2024-02-26T13:54:15.193Z,9.60
2024-02-26T13:56:45.181Z,11.73
2024-02-26T13:59:14.129Z,11.32
2024-02-26T14:01:41.582Z,10.90
2024-02-26T14:04:10.568Z,10.90
2024-02-26T14:09:05.788Z,11.25
2024-02-26T14:11:33.610Z,10.13
2024-02-26T14:14:01.136Z,10.13
2024-02-26T14:16:30.818Z,10.55
2024-02-26T14:18:59.909Z,13.02
2024-02-26T14:21:28.567Z,11.57
2024-02-26T14:23:56.978Z,11.23
2024-02-26T14:26:24.708Z,10.77
2024-02-26T14:28:52.179Z,10.88
2024-02-26T14:31:19.760Z,11.60
2024-02-26T14:33:47.587Z,11.75
2024-02-26T14:36:15.805Z,12.13
2024-02-26T14:38:43.446Z,11.23
2024-02-26T14:41:11.649Z,12.60
2024-02-26T14:43:39.109Z,7.45
2024-02-26T14:46:06.597Z,12.75
2024-02-26T14:48:34.053Z,11.02
2024-02-26T14:51:01.782Z,12.05
2024-02-26T14:53:29.283Z,10.15
2024-02-26T14:55:56.814Z,10.20
2024-02-26T14:58:24.357Z,10.13
2024-02-26T15:00:52.462Z,11.15
2024-02-26T15:03:20.375Z,13.55
2024-02-26T15:05:48.040Z,11.50
2024-02-26T15:08:17.301Z,12.30
2024-02-26T15:10:49.412Z,11.30
2024-02-26T15:13:19.314Z,12.20
2024-02-26T15:15:47.539Z,14.38
2024-02-26T15:18:17.477Z,10.73
2024-02-26T15:20:45.424Z,9.07
2024-02-26T15:23:13.403Z,10.65
2024-02-26T15:25:42.639Z,9.90
2024-02-26T15:28:12.620Z,9.90
2024-02-26T15:30:40.267Z,8.60
2024-02-26T15:33:07.692Z,9.10
2024-02-26T15:35:35.467Z,8.27
2024-02-26T15:38:02.967Z,10.10
2024-02-26T15:40:30.495Z,8.93
2024-02-26T15:42:57.942Z,9.40
2024-02-26T15:45:26.200Z,8.55
2024-02-26T15:47:54.083Z,8.07
2024-02-26T15:50:21.637Z,8.95
2024-02-26T15:52:49.162Z,11.10
2024-02-26T15:55:18.743Z,10.80
2024-02-26T15:57:47.071Z,10.32
2024-02-26T16:00:14.937Z,11.15
2024-02-26T16:02:42.470Z,9.48
2024-02-26T16:05:10.372Z,9.02
2024-02-26T16:07:43.322Z,6.80
2024-02-26T16:10:10.983Z,12.45
2024-02-26T16:12:43.998Z,8.77
2024-02-26T16:15:11.938Z,10.07
2024-02-26T16:17:48.284Z,9.80
2024-02-26T16:20:17.158Z,9.93
2024-02-26T16:22:44.750Z,9.90
2024-02-26T16:25:12.656Z,8.38
2024-02-26T16:27:41.967Z,8.73
2024-02-26T16:30:10.401Z,11.02
2024-02-26T16:32:41.445Z,8.65
2024-02-26T16:35:09.211Z,7.88
2024-02-26T16:37:36.593Z,10.50
2024-02-26T16:40:05.945Z,10.68
2024-02-26T16:42:35.981Z,8.20
2024-02-26T16:45:05.383Z,11.52
2024-02-26T16:47:34.465Z,9.57
2024-02-26T16:52:29.256Z,8.90
2024-02-26T16:54:57.055Z,9.98
2024-02-26T16:57:24.707Z,11.00
2024-02-26T16:59:52.322Z,9.77
2024-02-26T17:02:19.846Z,10.70
2024-02-26T17:04:47.457Z,12.35
2024-02-26T17:07:17.245Z,10.18
2024-02-26T17:09:44.761Z,11.25
2024-02-26T17:12:12.336Z,11.50
2024-02-26T17:14:39.844Z,12.63
2024-02-26T17:17:08.176Z,11.35
2024-02-26T17:19:36.514Z,13.52
2024-02-26T17:22:04.109Z,7.90
2024-02-26T17:24:31.627Z,10.55
2024-02-26T17:26:59.233Z,12.38
2024-02-26T17:29:26.769Z,13.30
2024-02-26T17:31:54.309Z,11.05
2024-02-26T17:34:22.300Z,11.85
2024-02-26T17:36:50.145Z,9.60
2024-02-26T17:39:18.541Z,11.98
2024-02-26T17:41:46.410Z,12.05
2024-02-26T17:44:13.851Z,12.50
2024-02-26T17:46:41.207Z,13.75
2024-02-26T17:49:09.194Z,11.38
2024-02-26T17:51:36.773Z,12.10
2024-02-26T17:54:04.105Z,12.27
2024-02-26T17:56:31.665Z,12.00
2024-02-26T17:58:59.192Z,13.23
2024-02-26T18:01:27.743Z,12.40
2024-02-26T18:03:55.380Z,12.32
2024-02-26T18:06:22.982Z,13.13
2024-02-26T18:08:50.675Z,12.52
2024-02-26T18:11:18.317Z,12.48
2024-02-26T18:13:46.517Z,13.48
2024-02-26T18:16:14.741Z,12.90
2024-02-26T18:18:47.567Z,10.10
2024-02-26T18:21:17.796Z,10.65
2024-02-26T18:23:45.492Z,12.68
2024-02-26T18:26:19.953Z,9.23
2024-02-26T18:28:47.862Z,11.88
2024-02-26T18:31:15.937Z,10.95
2024-02-26T18:33:43.328Z,9.27
2024-02-26T18:36:11.181Z,11.25
2024-02-26T18:38:40.492Z,9.23
2024-02-26T18:41:08.112Z,9.32
2024-02-26T18:43:35.707Z,9.70
2024-02-26T18:46:03.411Z,11.23
2024-02-26T18:48:31.770Z,9.60
2024-02-26T18:51:01.069Z,11.93
2024-02-26T18:53:28.588Z,10.18
2024-02-26T18:55:56.078Z,8.48
2024-02-26T18:58:24.950Z,8.63
2024-02-26T19:03:19.816Z,8.27
2024-02-26T19:05:47.510Z,6.28
2024-02-26T19:08:16.616Z,6.97
2024-02-26T19:10:44.243Z,6.45
2024-02-26T19:13:11.783Z,7.00
2024-02-26T19:15:41.447Z,6.22
2024-02-26T19:18:09.026Z,5.10
2024-02-26T19:20:36.521Z,5.45
2024-02-26T19:23:04.092Z,5.30
2024-02-26T19:25:31.565Z,5.03
2024-02-26T19:27:59.117Z,5.00
2024-02-26T19:30:26.570Z,4.03
2024-02-26T19:32:54.505Z,4.50
2024-02-26T19:35:22.825Z,4.15
2024-02-26T19:37:50.418Z,4.75
2024-02-26T19:40:18.262Z,3.20
2024-02-26T19:42:46.094Z,4.68
2024-02-26T19:45:13.714Z,5.78
2024-02-26T19:47:41.730Z,4.63
2024-02-26T19:50:09.885Z,4.70
2024-02-26T19:52:37.520Z,5.03
2024-02-26T19:55:05.389Z,4.47
2024-02-26T19:57:34.765Z,4.93
2024-02-26T20:00:02.770Z,5.28
2024-02-26T20:02:30.585Z,5.18
2024-02-26T20:04:58.388Z,5.63
2024-02-26T20:07:25.977Z,5.25
2024-02-26T20:09:53.581Z,6.10
2024-02-26T20:12:21.199Z,6.43
2024-02-26T20:14:48.988Z,6.28
2024-02-26T20:17:17.234Z,5.32
2024-02-26T20:19:45.056Z,5.55
2024-02-26T20:22:14.685Z,5.15
2024-02-26T20:24:41.992Z,6.20
2024-02-26T20:27:10.887Z,5.25
2024-02-26T20:29:39.785Z,5.05
2024-02-26T20:32:07.614Z,5.05
2024-02-26T20:34:35.196Z,5.53
2024-02-26T20:37:05.165Z,5.82
2024-02-26T20:39:32.725Z,5.05
2024-02-26T20:42:00.357Z,5.15
2024-02-26T20:44:27.919Z,5.00
2024-02-26T20:47:00.135Z,4.95
2024-02-26T20:49:27.822Z,4.88
2024-02-26T20:51:55.423Z,4.65
2024-02-26T20:54:23.042Z,5.18
2024-02-26T20:56:50.874Z,4.70
2024-02-26T20:59:18.412Z,4.93
2024-02-26T21:01:45.852Z,5.57
2024-02-26T21:04:13.356Z,5.53
2024-02-26T21:06:40.997Z,6.47
2024-02-26T21:09:09.159Z,5.70
2024-02-26T21:11:37.091Z,4.53
2024-02-26T21:14:04.856Z,6.50
2024-02-26T21:16:32.350Z,5.57
2024-02-26T21:19:00.874Z,7.65
2024-02-26T21:21:29.763Z,6.35
2024-02-26T21:24:01.037Z,6.28
2024-02-26T21:26:30.314Z,11.48
2024-02-26T21:28:57.817Z,8.25
2024-02-26T21:31:25.337Z,6.68
2024-02-26T21:33:53.038Z,6.32
2024-02-26T21:36:20.766Z,7.07
2024-02-26T21:38:50.870Z,6.30
2024-02-26T21:41:20.261Z,6.00
2024-02-26T21:43:52.035Z,5.55
2024-02-26T21:46:20.741Z,5.28
2024-02-26T21:48:48.747Z,4.07
2024-02-26T21:51:16.456Z,5.82
2024-02-26T21:53:45.954Z,5.57
2024-02-26T21:56:14.556Z,5.93
2024-02-26T21:58:42.188Z,5.88
2024-02-26T22:01:09.735Z,5.70
2024-02-26T22:03:37.353Z,5.35
2024-02-26T22:06:04.825Z,6.50
2024-02-26T22:08:32.329Z,5.03
2024-02-26T22:11:01.332Z,5.18
2024-02-26T22:13:29.013Z,5.82
2024-02-26T22:15:56.514Z,5.55
2024-02-26T22:18:24.213Z,5.43
2024-02-26T22:20:51.921Z,4.78
2024-02-26T22:23:19.418Z,6.32
2024-02-26T22:25:47.328Z,6.35
2024-02-26T22:28:14.900Z,6.15
2024-02-26T22:30:42.209Z,6.25
2024-02-26T22:33:09.796Z,5.57
2024-02-26T22:35:37.532Z,5.85
2024-02-26T22:38:05.961Z,5.97
2024-02-26T22:40:33.522Z,6.25
2024-02-26T22:43:01.057Z,5.68
2024-02-26T22:45:28.538Z,5.78
2024-02-26T22:47:55.908Z,6.32
2024-02-26T22:50:23.522Z,7.10
2024-02-26T22:52:52.369Z,6.80
2024-02-26T22:55:24.613Z,7.28
2024-02-26T22:57:52.903Z,7.75
2024-02-26T23:00:33.332Z,4.93
2024-02-26T23:03:01.921Z,5.93
2024-02-26T23:05:29.812Z,6.35
2024-02-26T23:07:57.484Z,7.10
2024-02-26T23:10:25.505Z,6.63
2024-02-26T23:12:53.179Z,7.10
2024-02-26T23:15:20.799Z,7.05
2024-02-26T23:17:54.249Z,8.18
2024-02-26T23:20:22.405Z,8.07
2024-02-26T23:22:50.346Z,9.23
2024-02-26T23:25:19.113Z,6.50
2024-02-26T23:27:49.626Z,9.55
2024-02-26T23:30:19.388Z,7.60
2024-02-26T23:32:47.143Z,9.75
2024-02-26T23:35:14.686Z,10.15
2024-02-26T23:37:41.905Z,11.77
2024-02-26T23:40:09.464Z,11.45
2024-02-26T23:42:38.187Z,11.73
2024-02-26T23:45:07.121Z,12.48
2024-02-26T23:47:35.024Z,10.07
2024-02-26T23:50:02.726Z,10.63
2024-02-26T23:52:30.230Z,10.88
2024-02-26T23:54:57.779Z,10.93
2024-02-26T23:57:25.314Z,10.68
2024-02-26T23:59:52.999Z,12.40
